sensor_id;sensor_type;location;lat;lon;timestamp;pressure;altitude;pressure_sealevel;temperature;humidity
9460;BME280;4768;42.664;23.240;2022-09-27T00:01:18;-9791.44;;;13.34;100.00
9460;BME280;4768;42.664;23.240;2022-09-27T00:03:44;-9791.00;;;13.33;100.00
9460;BME280;4768;42.664;23.240;2022-09-27T00:06:14;-9791.16;;;13.33;100.00
9460;BME280;4768;42.664;23.240;2022-09-27T00:08:42;-9791.31;;;13.34;100.00
9460;BME280;4768;42.664;23.240;2022-09-27T00:11:11;-9791.59;;;13.35;100.00
9460;BME280;4768;42.664;23.240;2022-09-27T00:13:42;-9790.72;;;13.32;100.00
9460;BME280;4768;42.664;23.240;2022-09-27T00:16:09;-9791.44;;;13.34;100.00
9460;BME280;4768;42.664;23.240;2022-09-27T00:18:35;-9788.44;;;13.24;100.00
9460;BME280;4768;42.664;23.240;2022-09-27T00:21:07;-9789.44;;;13.27;100.00
9460;BME280;4768;42.664;23.240;2022-09-27T00:23:36;-9788.44;;;13.24;100.00
9460;BME280;4768;42.664;23.240;2022-09-27T00:26:03;-9788.59;;;13.24;100.00
9460;BME280;4768;42.664;23.240;2022-09-27T00:28:30;-9789.59;;;13.28;100.00
9460;BME280;4768;42.664;23.240;2022-09-27T00:47:21;-9786.19;;;13.16;100.00
9460;BME280;4768;42.664;23.240;2022-09-27T00:49:53;-9788.03;;;13.22;100.00
9460;BME280;4768;42.664;23.240;2022-09-27T00:52:24;-9786.03;;;13.15;100.00
9460;BME280;4768;42.664;23.240;2022-09-27T00:54:55;-9786.59;;;13.17;100.00
9460;BME280;4768;42.664;23.240;2022-09-27T00:57:25;-9787.47;;;13.20;100.00
9460;BME280;4768;42.664;23.240;2022-09-27T00:59:55;-9785.31;;;13.13;100.00
9460;BME280;4768;42.664;23.240;2022-09-27T01:02:26;-9784.19;;;13.09;100.00
9460;BME280;4768;42.664;23.240;2022-09-27T01:04:53;-9787.75;;;13.21;100.00
9460;BME280;4768;42.664;23.240;2022-09-27T01:07:21;-9786.75;;;13.18;100.00
9460;BME280;4768;42.664;23.240;2022-09-27T01:09:48;-9786.88;;;13.18;100.00
9460;BME280;4768;42.664;23.240;2022-09-27T01:12:22;-9784.19;;;13.09;100.00
9460;BME280;4768;42.664;23.240;2022-09-27T01:15:03;-9781.63;;;13.00;100.00
9460;BME280;4768;42.664;23.240;2022-09-27T01:17:46;-9783.75;;;13.07;100.00
9460;BME280;4768;42.664;23.240;2022-09-27T01:20:39;-9783.34;;;13.06;100.00
9460;BME280;4768;42.664;23.240;2022-09-27T01:23:23;-9783.06;;;13.05;100.00
9460;BME280;4768;42.664;23.240;2022-09-27T01:26:09;-9781.50;;;13.00;100.00
9460;BME280;4768;42.664;23.240;2022-09-27T01:28:47;-9779.22;;;12.92;100.00
9460;BME280;4768;42.664;23.240;2022-09-27T01:31:23;-9779.22;;;12.92;100.00
9460;BME280;4768;42.664;23.240;2022-09-27T01:34:00;-9781.63;;;13.00;100.00
9460;BME280;4768;42.664;23.240;2022-09-27T01:36:34;-9777.09;;;12.84;100.00
9460;BME280;4768;42.664;23.240;2022-09-27T01:39:20;-9780.63;;;12.97;100.00
9460;BME280;4768;42.664;23.240;2022-09-27T01:41:58;-9781.06;;;12.98;100.00
9460;BME280;4768;42.664;23.240;2022-09-27T01:44:29;-9781.19;;;12.99;100.00
9460;BME280;4768;42.664;23.240;2022-09-27T01:47:02;-9780.06;;;12.95;100.00
9460;BME280;4768;42.664;23.240;2022-09-27T01:49:33;-9778.22;;;12.88;100.00
9460;BME280;4768;42.664;23.240;2022-09-27T01:52:05;-9779.50;;;12.93;100.00
9460;BME280;4768;42.664;23.240;2022-09-27T01:54:37;-9779.22;;;12.92;100.00
9460;BME280;4768;42.664;23.240;2022-09-27T01:57:06;-9780.22;;;12.95;100.00
9460;BME280;4768;42.664;23.240;2022-09-27T01:59:39;-9778.78;;;12.90;100.00
9460;BME280;4768;42.664;23.240;2022-09-27T02:02:09;-9777.94;;;12.87;100.00
9460;BME280;4768;42.664;23.240;2022-09-27T02:04:38;-9778.94;;;12.91;100.00
9460;BME280;4768;42.664;23.240;2022-09-27T02:07:10;-9778.50;;;12.89;100.00
9460;BME280;4768;42.664;23.240;2022-09-27T02:09:40;-9778.06;;;12.88;100.00
9460;BME280;4768;42.664;23.240;2022-09-27T02:12:13;-9777.50;;;12.86;100.00
9460;BME280;4768;42.664;23.240;2022-09-27T02:14:44;-9779.94;;;12.94;100.00
9460;BME280;4768;42.664;23.240;2022-09-27T02:17:22;-9778.06;;;12.88;100.00
9460;BME280;4768;42.664;23.240;2022-09-27T02:19:55;-9779.22;;;12.92;100.00
9460;BME280;4768;42.664;23.240;2022-09-27T02:22:31;-9779.94;;;12.94;100.00
9460;BME280;4768;42.664;23.240;2022-09-27T02:25:03;-9778.06;;;12.88;100.00
9460;BME280;4768;42.664;23.240;2022-09-27T02:27:34;-9778.94;;;12.91;100.00
9460;BME280;4768;42.664;23.240;2022-09-27T02:30:06;-9777.66;;;12.86;100.00
9460;BME280;4768;42.664;23.240;2022-09-27T02:32:35;-9780.50;;;12.96;100.00
9460;BME280;4768;42.664;23.240;2022-09-27T02:35:06;-9778.50;;;12.89;100.00
9460;BME280;4768;42.664;23.240;2022-09-27T02:37:34;-9780.22;;;12.95;100.00
9460;BME280;4768;42.664;23.240;2022-09-27T02:40:01;-9780.22;;;12.95;100.00
9460;BME280;4768;42.664;23.240;2022-09-27T02:42:30;-9780.06;;;12.95;100.00
9460;BME280;4768;42.664;23.240;2022-09-27T02:44:58;-9779.63;;;12.93;100.00
9460;BME280;4768;42.664;23.240;2022-09-27T02:47:37;-9780.22;;;12.95;100.00
9460;BME280;4768;42.664;23.240;2022-09-27T02:50:21;-9777.22;;;12.85;100.00
9460;BME280;4768;42.664;23.240;2022-09-27T02:52:58;-9779.22;;;12.92;100.00
9460;BME280;4768;42.664;23.240;2022-09-27T02:55:39;-9777.94;;;12.87;100.00
9460;BME280;4768;42.664;23.240;2022-09-27T02:58:19;-9777.94;;;12.87;100.00
9460;BME280;4768;42.664;23.240;2022-09-27T03:00:55;-9777.94;;;12.87;100.00
9460;BME280;4768;42.664;23.240;2022-09-27T03:03:28;-9778.34;;;12.89;100.00
9460;BME280;4768;42.664;23.240;2022-09-27T03:06:02;-9778.78;;;12.90;100.00
9460;BME280;4768;42.664;23.240;2022-09-27T03:08:29;-9777.94;;;12.87;100.00
9460;BME280;4768;42.664;23.240;2022-09-27T03:10:56;-9778.50;;;12.89;100.00
9460;BME280;4768;42.664;23.240;2022-09-27T03:13:23;-9779.06;;;12.91;100.00
9460;BME280;4768;42.664;23.240;2022-09-27T03:15:50;-9780.22;;;12.95;100.00
9460;BME280;4768;42.664;23.240;2022-09-27T03:18:16;-9779.94;;;12.94;100.00
9460;BME280;4768;42.664;23.240;2022-09-27T03:20:44;-9781.34;;;12.99;100.00
9460;BME280;4768;42.664;23.240;2022-09-27T03:23:11;-9781.06;;;12.98;100.00
9460;BME280;4768;42.664;23.240;2022-09-27T03:25:39;-9780.78;;;12.97;100.00
9460;BME280;4768;42.664;23.240;2022-09-27T03:28:05;-9778.66;;;12.90;100.00
9460;BME280;4768;42.664;23.240;2022-09-27T03:30:33;-9776.22;;;12.81;100.00
9460;BME280;4768;42.664;23.240;2022-09-27T03:33:02;-9781.19;;;12.99;100.00
9460;BME280;4768;42.664;23.240;2022-09-27T03:35:29;-9777.22;;;12.85;100.00
9460;BME280;4768;42.664;23.240;2022-09-27T03:37:57;-9782.06;;;13.02;100.00
9460;BME280;4768;42.664;23.240;2022-09-27T03:40:23;-9784.06;;;13.08;100.00
9460;BME280;4768;42.664;23.240;2022-09-27T03:42:50;-9778.06;;;12.88;100.00
9460;BME280;4768;42.664;23.240;2022-09-27T03:45:17;-9781.06;;;12.98;100.00
9460;BME280;4768;42.664;23.240;2022-09-27T03:47:44;-9782.19;;;13.02;100.00
9460;BME280;4768;42.664;23.240;2022-09-27T03:50:11;-9783.06;;;13.05;100.00
9460;BME280;4768;42.664;23.240;2022-09-27T03:52:38;-9780.22;;;12.95;100.00
9460;BME280;4768;42.664;23.240;2022-09-27T03:55:07;-9783.75;;;13.07;100.00
9460;BME280;4768;42.664;23.240;2022-09-27T03:57:34;-9783.63;;;13.07;100.00
9460;BME280;4768;42.664;23.240;2022-09-27T04:00:01;-9783.63;;;13.07;100.00
9460;BME280;4768;42.664;23.240;2022-09-27T04:02:27;-9783.34;;;13.06;100.00
9460;BME280;4768;42.664;23.240;2022-09-27T04:04:54;-9783.75;;;13.07;100.00
9460;BME280;4768;42.664;23.240;2022-09-27T04:07:21;-9782.06;;;13.02;100.00
9460;BME280;4768;42.664;23.240;2022-09-27T04:09:48;-9783.75;;;13.07;100.00
9460;BME280;4768;42.664;23.240;2022-09-27T04:12:16;-9783.06;;;13.05;100.00
9460;BME280;4768;42.664;23.240;2022-09-27T04:14:43;-9782.91;;;13.04;100.00
9460;BME280;4768;42.664;23.240;2022-09-27T04:17:10;-9781.78;;;13.01;100.00
9460;BME280;4768;42.664;23.240;2022-09-27T04:19:37;-9784.34;;;13.09;100.00
9460;BME280;4768;42.664;23.240;2022-09-27T04:22:04;-9785.03;;;13.12;100.00
9460;BME280;4768;42.664;23.240;2022-09-27T04:24:31;-9783.63;;;13.07;100.00
9460;BME280;4768;42.664;23.240;2022-09-27T04:26:58;-9785.19;;;13.12;100.00
9460;BME280;4768;42.664;23.240;2022-09-27T04:29:26;-9785.75;;;13.14;100.00
9460;BME280;4768;42.664;23.240;2022-09-27T04:31:53;-9785.03;;;13.12;100.00
9460;BME280;4768;42.664;23.240;2022-09-27T04:34:20;-9784.75;;;13.11;100.00
9460;BME280;4768;42.664;23.240;2022-09-27T04:37:07;-9784.75;;;13.11;100.00
9460;BME280;4768;42.664;23.240;2022-09-27T04:39:32;-9783.19;;;13.05;100.00
9460;BME280;4768;42.664;23.240;2022-09-27T04:42:01;-9784.75;;;13.11;100.00
9460;BME280;4768;42.664;23.240;2022-09-27T04:44:29;-9784.47;;;13.10;100.00
9460;BME280;4768;42.664;23.240;2022-09-27T04:46:56;-9783.75;;;13.07;100.00
9460;BME280;4768;42.664;23.240;2022-09-27T04:49:23;-9783.06;;;13.05;100.00
9460;BME280;4768;42.664;23.240;2022-09-27T04:51:49;-9784.63;;;13.10;100.00
9460;BME280;4768;42.664;23.240;2022-09-27T04:54:16;-9788.88;;;13.25;100.00
9460;BME280;4768;42.664;23.240;2022-09-27T04:56:43;-9789.59;;;13.28;100.00
9460;BME280;4768;42.664;23.240;2022-09-27T04:59:10;-9801.25;;;13.68;100.00
9460;BME280;4768;42.664;23.240;2022-09-27T05:01:38;-9804.66;;;13.80;100.00
9460;BME280;4768;42.664;23.240;2022-09-27T05:04:05;-9804.94;;;13.81;100.00
9460;BME280;4768;42.664;23.240;2022-09-27T05:06:31;-9799.84;;;13.63;100.00
9460;BME280;4768;42.664;23.240;2022-09-27T05:08:58;-9792.56;;;13.38;100.00
9460;BME280;4768;42.664;23.240;2022-09-27T05:11:25;-9792.88;;;13.39;100.00
9460;BME280;4768;42.664;23.240;2022-09-27T05:13:52;-9789.16;;;13.26;100.00
9460;BME280;4768;42.664;23.240;2022-09-27T05:16:19;-9788.75;;;13.25;100.00
9460;BME280;4768;42.664;23.240;2022-09-27T05:18:47;-9791.59;;;13.35;100.00
9460;BME280;4768;42.664;23.240;2022-09-27T05:21:14;-9793.28;;;13.41;100.00
9460;BME280;4768;42.664;23.240;2022-09-27T05:23:41;-9793.84;;;13.43;100.00
9460;BME280;4768;42.664;23.240;2022-09-27T05:26:08;-9795.44;;;13.48;100.00
9460;BME280;4768;42.664;23.240;2022-09-27T05:28:34;-9795.44;;;13.48;100.00
9460;BME280;4768;42.664;23.240;2022-09-27T05:31:01;-9796.69;;;13.52;100.00
9460;BME280;4768;42.664;23.240;2022-09-27T05:33:28;-9797.69;;;13.56;100.00
9460;BME280;4768;42.664;23.240;2022-09-27T05:35:57;-9796.41;;;13.52;100.00
9460;BME280;4768;42.664;23.240;2022-09-27T05:38:24;-9796.84;;;13.53;100.00
9460;BME280;4768;42.664;23.240;2022-09-27T05:40:50;-9798.13;;;13.57;100.00
9460;BME280;4768;42.664;23.240;2022-09-27T05:43:17;-9798.13;;;13.57;100.00
9460;BME280;4768;42.664;23.240;2022-09-27T05:45:46;-9798.97;;;13.60;100.00
9460;BME280;4768;42.664;23.240;2022-09-27T05:48:12;-9797.84;;;13.56;100.00
9460;BME280;4768;42.664;23.240;2022-09-27T05:50:39;-9800.69;;;13.66;100.00
9460;BME280;4768;42.664;23.240;2022-09-27T05:53:08;-9799.84;;;13.63;100.00
9460;BME280;4768;42.664;23.240;2022-09-27T05:55:35;-9796.28;;;13.51;100.00
9460;BME280;4768;42.664;23.240;2022-09-27T05:58:03;-9794.16;;;13.44;100.00
9460;BME280;4768;42.664;23.240;2022-09-27T06:00:30;-9793.56;;;13.42;100.00
9460;BME280;4768;42.664;23.240;2022-09-27T06:02:58;-9792.56;;;13.38;100.00
9460;BME280;4768;42.664;23.240;2022-09-27T06:05:27;-9790.72;;;13.32;100.00
9460;BME280;4768;42.664;23.240;2022-09-27T06:07:58;-9791.44;;;13.34;100.00
9460;BME280;4768;42.664;23.240;2022-09-27T06:10:27;-9792.00;;;13.36;100.00
9460;BME280;4768;42.664;23.240;2022-09-27T06:12:58;-9792.72;;;13.39;100.00
9460;BME280;4768;42.664;23.240;2022-09-27T06:15:25;-9794.56;;;13.45;100.00
9460;BME280;4768;42.664;23.240;2022-09-27T06:17:52;-9793.44;;;13.41;100.00
9460;BME280;4768;42.664;23.240;2022-09-27T06:20:19;-9794.28;;;13.44;100.00
9460;BME280;4768;42.664;23.240;2022-09-27T06:22:46;-9795.28;;;13.48;100.00
9460;BME280;4768;42.664;23.240;2022-09-27T06:25:13;-9795.56;;;13.49;100.00
9460;BME280;4768;42.664;23.240;2022-09-27T06:27:41;-9799.41;;;13.62;100.00
9460;BME280;4768;42.664;23.240;2022-09-27T06:30:09;-9798.56;;;13.59;100.00
9460;BME280;4768;42.664;23.240;2022-09-27T06:32:36;-9797.97;;;13.57;100.00
9460;BME280;4768;42.664;23.240;2022-09-27T06:35:04;-9799.25;;;13.61;100.00
9460;BME280;4768;42.664;23.240;2022-09-27T06:37:31;-9799.97;;;13.64;100.00
9460;BME280;4768;42.664;23.240;2022-09-27T06:39:58;-9801.25;;;13.68;100.00
9460;BME280;4768;42.664;23.240;2022-09-27T06:42:26;-9799.41;;;13.62;100.00
9460;BME280;4768;42.664;23.240;2022-09-27T06:44:55;-9799.41;;;13.62;100.00
9460;BME280;4768;42.664;23.240;2022-09-27T06:47:22;-9800.97;;;13.67;100.00
9460;BME280;4768;42.664;23.240;2022-09-27T06:49:50;-9800.13;;;13.64;100.00
9460;BME280;4768;42.664;23.240;2022-09-27T06:52:17;-9801.13;;;13.68;100.00
9460;BME280;4768;42.664;23.240;2022-09-27T06:54:43;-9802.97;;;13.74;100.00
9460;BME280;4768;42.664;23.240;2022-09-27T06:57:10;-9803.97;;;13.78;100.00
9460;BME280;4768;42.664;23.240;2022-09-27T07:00:00;-9804.25;;;13.79;100.00
9460;BME280;4768;42.664;23.240;2022-09-27T07:02:45;-9803.09;;;13.75;100.00
9460;BME280;4768;42.664;23.240;2022-09-27T07:05:11;-9804.66;;;13.80;100.00
9460;BME280;4768;42.664;23.240;2022-09-27T07:07:38;-9807.66;;;13.91;100.00
9460;BME280;4768;42.664;23.240;2022-09-27T07:10:06;-9807.66;;;13.91;100.00
9460;BME280;4768;42.664;23.240;2022-09-27T07:12:34;-9807.66;;;13.91;100.00
9460;BME280;4768;42.664;23.240;2022-09-27T07:15:04;-9808.78;;;13.95;100.00
9460;BME280;4768;42.664;23.240;2022-09-27T07:17:31;-9811.63;;;14.04;100.00
9460;BME280;4768;42.664;23.240;2022-09-27T07:20:00;-9814.91;;;14.16;100.00
9460;BME280;4768;42.664;23.240;2022-09-27T07:22:27;-9815.06;;;14.16;100.00
9460;BME280;4768;42.664;23.240;2022-09-27T07:24:55;-9811.34;;;14.03;100.00
9460;BME280;4768;42.664;23.240;2022-09-27T07:27:22;-9815.47;;;14.18;100.00
9460;BME280;4768;42.664;23.240;2022-09-27T07:29:50;-9814.78;;;14.15;100.00
9460;BME280;4768;42.664;23.240;2022-09-27T07:32:19;-9813.91;;;14.12;100.00
9460;BME280;4768;42.664;23.240;2022-09-27T07:34:46;-9811.78;;;14.05;100.00
9460;BME280;4768;42.664;23.240;2022-09-27T07:37:12;-9810.06;;;13.99;100.00
9460;BME280;4768;42.664;23.240;2022-09-27T07:39:39;-9808.66;;;13.94;100.00
9460;BME280;4768;42.664;23.240;2022-09-27T07:42:06;-9805.38;;;13.83;100.00
9460;BME280;4768;42.664;23.240;2022-09-27T07:44:33;-9806.53;;;13.87;100.00
9460;BME280;4768;42.664;23.240;2022-09-27T07:47:00;-9808.38;;;13.93;100.00
9460;BME280;4768;42.664;23.240;2022-09-27T07:49:28;-9807.09;;;13.89;100.00
9460;BME280;4768;42.664;23.240;2022-09-27T07:51:55;-9807.66;;;13.91;100.00
9460;BME280;4768;42.664;23.240;2022-09-27T07:54:21;-9809.94;;;13.99;100.00
9460;BME280;4768;42.664;23.240;2022-09-27T07:56:48;-9814.78;;;14.15;100.00
9460;BME280;4768;42.664;23.240;2022-09-27T07:59:15;-9809.06;;;13.96;100.00
9460;BME280;4768;42.664;23.240;2022-09-27T08:01:42;-9806.94;;;13.88;100.00
9460;BME280;4768;42.664;23.240;2022-09-27T08:04:10;-9808.38;;;13.93;100.00
9460;BME280;4768;42.664;23.240;2022-09-27T08:06:38;-9808.50;;;13.94;100.00
9460;BME280;4768;42.664;23.240;2022-09-27T08:09:06;-9809.06;;;13.96;100.00
9460;BME280;4768;42.664;23.240;2022-09-27T08:11:34;-9811.06;;;14.02;100.00
9460;BME280;4768;42.664;23.240;2022-09-27T08:14:02;-9813.34;;;14.10;100.00
9460;BME280;4768;42.664;23.240;2022-09-27T08:16:32;-9814.91;;;14.16;100.00
9460;BME280;4768;42.664;23.240;2022-09-27T08:18:59;-9818.03;;;14.27;100.00
9460;BME280;4768;42.664;23.240;2022-09-27T08:21:25;-9816.91;;;14.23;100.00
9460;BME280;4768;42.664;23.240;2022-09-27T08:23:54;-9813.06;;;14.09;100.00
9460;BME280;4768;42.664;23.240;2022-09-27T08:26:20;-9814.19;;;14.13;100.00
9460;BME280;4768;42.664;23.240;2022-09-27T08:28:47;-9819.19;;;14.31;100.00
9460;BME280;4768;42.664;23.240;2022-09-27T08:31:14;-9824.16;;;14.48;100.00
9460;BME280;4768;42.664;23.240;2022-09-27T08:33:40;-9821.47;;;14.39;100.00
9460;BME280;4768;42.664;23.240;2022-09-27T08:36:10;-9819.63;;;14.32;100.00
9460;BME280;4768;42.664;23.240;2022-09-27T08:38:37;-9822.44;;;14.42;100.00
9460;BME280;4768;42.664;23.240;2022-09-27T08:41:08;-9824.16;;;14.48;100.00
9460;BME280;4768;42.664;23.240;2022-09-27T08:43:45;-9826.16;;;14.55;100.00
9460;BME280;4768;42.664;23.240;2022-09-27T08:46:22;-9827.72;;;14.60;100.00
9460;BME280;4768;42.664;23.240;2022-09-27T08:48:55;-9825.31;;;14.52;100.00
9460;BME280;4768;42.664;23.240;2022-09-27T08:51:27;-9823.16;;;14.45;100.00
9460;BME280;4768;42.664;23.240;2022-09-27T08:53:59;-9827.59;;;14.60;100.00
9460;BME280;4768;42.664;23.240;2022-09-27T08:56:30;-9829.28;;;14.66;100.00
9460;BME280;4768;42.664;23.240;2022-09-27T08:59:01;-9833.56;;;14.81;100.00
9460;BME280;4768;42.664;23.240;2022-09-27T09:01:31;-9840.53;;;15.05;100.00
9460;BME280;4768;42.664;23.240;2022-09-27T09:04:00;-9843.53;;;15.15;100.00
9460;BME280;4768;42.664;23.240;2022-09-27T09:06:37;-9852.50;;;15.47;100.00
9460;BME280;4768;42.664;23.240;2022-09-27T09:09:12;-9846.50;;;15.26;100.00
9460;BME280;4768;42.664;23.240;2022-09-27T09:11:56;-9846.94;;;15.27;100.00
9460;BME280;4768;42.664;23.240;2022-09-27T09:14:57;-9846.94;;;15.27;100.00
9460;BME280;4768;42.664;23.240;2022-09-27T09:17:43;-9845.94;;;15.24;100.00
9460;BME280;4768;42.664;23.240;2022-09-27T09:20:18;-9850.06;;;15.38;100.00
9460;BME280;4768;42.664;23.240;2022-09-27T09:23:01;-9847.94;;;15.31;100.00
9460;BME280;4768;42.664;23.240;2022-09-27T09:25:39;-9849.22;;;15.35;100.00
9460;BME280;4768;42.664;23.240;2022-09-27T09:28:25;-9849.94;;;15.38;100.00
9460;BME280;4768;42.664;23.240;2022-09-27T09:31:03;-9851.50;;;15.43;100.00
9460;BME280;4768;42.664;23.240;2022-09-27T09:33:37;-9859.91;;;15.72;100.00
9460;BME280;4768;42.664;23.240;2022-09-27T09:36:10;-9865.03;;;15.90;100.00
9460;BME280;4768;42.664;23.240;2022-09-27T09:38:42;-9865.59;;;15.92;100.00
9460;BME280;4768;42.664;23.240;2022-09-27T09:41:15;-9863.47;;;15.85;100.00
9460;BME280;4768;42.664;23.240;2022-09-27T09:43:49;-9863.59;;;15.85;100.00
9460;BME280;4768;42.664;23.240;2022-09-27T09:46:21;-9871.56;;;16.13;100.00
9460;BME280;4768;42.664;23.240;2022-09-27T09:48:54;-9874.28;;;16.22;100.00
9460;BME280;4768;42.664;23.240;2022-09-27T09:51:26;-9871.88;;;16.14;100.00
9460;BME280;4768;42.664;23.240;2022-09-27T09:53:57;-9878.28;;;16.36;100.00
9460;BME280;4768;42.664;23.240;2022-09-27T09:56:29;-9877.72;;;16.34;100.00
9460;BME280;4768;42.664;23.240;2022-09-27T09:59:00;-9870.59;;;16.09;100.00
9460;BME280;4768;42.664;23.240;2022-09-27T10:01:33;-9864.47;;;15.88;100.00
9460;BME280;4768;42.664;23.240;2022-09-27T10:04:01;-9863.47;;;15.85;100.00
9460;BME280;4768;42.664;23.240;2022-09-27T10:06:29;-9864.75;;;15.89;100.00
9460;BME280;4768;42.664;23.240;2022-09-27T10:08:56;-9869.72;;;16.06;100.00
9460;BME280;4768;42.664;23.240;2022-09-27T10:11:25;-9865.88;;;15.93;100.00
9460;BME280;4768;42.664;23.240;2022-09-27T10:13:53;-9868.03;;;16.00;100.00
9460;BME280;4768;42.664;23.240;2022-09-27T10:16:22;-9868.31;;;16.01;100.00
9460;BME280;4768;42.664;23.240;2022-09-27T10:18:56;-9874.56;;;16.23;100.00
9460;BME280;4768;42.664;23.240;2022-09-27T10:21:28;-9880.00;;;16.42;100.00
9460;BME280;4768;42.664;23.240;2022-09-27T10:24:03;-9880.69;;;16.45;100.00
9460;BME280;4768;42.664;23.240;2022-09-27T10:26:31;-9881.97;;;16.49;100.00
9460;BME280;4768;42.664;23.240;2022-09-27T10:29:13;-9880.69;;;16.45;100.00
9460;BME280;4768;42.664;23.240;2022-09-27T10:31:44;-9881.56;;;16.47;100.00
9460;BME280;4768;42.664;23.240;2022-09-27T10:34:19;-9883.28;;;16.53;100.00
9460;BME280;4768;42.664;23.240;2022-09-27T10:37:01;-9883.28;;;16.53;100.00
9460;BME280;4768;42.664;23.240;2022-09-27T10:39:29;-9883.56;;;16.54;100.00
9460;BME280;4768;42.664;23.240;2022-09-27T10:41:56;-9888.81;;;16.73;100.00
9460;BME280;4768;42.664;23.240;2022-09-27T10:44:24;-9898.09;;;17.05;100.00
9460;BME280;4768;42.664;23.240;2022-09-27T10:46:54;-9884.84;;;16.59;100.00
9460;BME280;4768;42.664;23.240;2022-09-27T10:49:25;-9888.53;;;16.72;100.00
9460;BME280;4768;42.664;23.240;2022-09-27T10:51:54;-9897.50;;;17.03;100.00
9460;BME280;4768;42.664;23.240;2022-09-27T10:54:24;-9896.22;;;16.98;100.00
9460;BME280;4768;42.664;23.240;2022-09-27T10:56:54;-9904.94;;;17.29;100.00
9460;BME280;4768;42.664;23.240;2022-09-27T10:59:22;-9899.22;;;17.09;100.00
9460;BME280;4768;42.664;23.240;2022-09-27T11:01:49;-9922.34;;;17.89;100.00
9460;BME280;4768;42.664;23.240;2022-09-27T11:04:23;-9913.91;;;17.60;100.00
9460;BME280;4768;42.664;23.240;2022-09-27T11:07:05;-9926.59;;;18.04;100.00
9460;BME280;4768;42.664;23.240;2022-09-27T11:09:44;-9941.03;;;18.54;100.00
9460;BME280;4768;42.664;23.240;2022-09-27T11:12:12;-9935.59;;;18.35;100.00
9460;BME280;4768;42.664;23.240;2022-09-27T11:14:39;-9948.44;;;18.80;100.00
9460;BME280;4768;42.664;23.240;2022-09-27T11:17:09;-9946.44;;;18.73;100.00
9460;BME280;4768;42.664;23.240;2022-09-27T11:19:52;-9956.59;;;19.08;100.00
9460;BME280;4768;42.664;23.240;2022-09-27T11:22:37;-9947.00;;;18.75;100.00
9460;BME280;4768;42.664;23.240;2022-09-27T11:25:15;-9950.72;;;18.88;100.00
9460;BME280;4768;42.664;23.240;2022-09-27T11:27:51;-9959.44;;;19.18;100.00
9460;BME280;4768;42.664;23.240;2022-09-27T11:30:23;-9975.72;;;19.74;100.00
9460;BME280;4768;42.664;23.240;2022-09-27T11:33:19;-9984.28;;;20.04;100.00
9460;BME280;4768;42.664;23.240;2022-09-27T11:36:00;-9984.84;;;20.06;100.00
9460;BME280;4768;42.664;23.240;2022-09-27T11:38:31;-9987.28;;;20.14;100.00
9460;BME280;4768;42.664;23.240;2022-09-27T11:41:13;-10005.69;;;20.78;100.00
9460;BME280;4768;42.664;23.240;2022-09-27T11:44:04;-10010.00;;;20.93;100.00
9460;BME280;4768;42.664;23.240;2022-09-27T11:46:38;-10010.13;;;20.93;100.00
9460;BME280;4768;42.664;23.240;2022-09-27T11:49:37;-10004.84;;;20.75;100.00
9460;BME280;4768;42.664;23.240;2022-09-27T11:52:19;-10008.13;;;20.87;100.00
9460;BME280;4768;42.664;23.240;2022-09-27T11:55:02;-10021.56;;;21.33;100.00
9460;BME280;4768;42.664;23.240;2022-09-27T11:57:37;-10021.00;;;21.31;100.00
9460;BME280;4768;42.664;23.240;2022-09-27T12:00:13;-10025.84;;;21.48;100.00
9460;BME280;4768;42.664;23.240;2022-09-27T12:03:00;-10033.28;;;21.74;100.00
9460;BME280;4768;42.664;23.240;2022-09-27T12:05:35;-10035.44;;;21.81;100.00
9460;BME280;4768;42.664;23.240;2022-09-27T12:08:17;-10040.16;;;21.97;100.00
9460;BME280;4768;42.664;23.240;2022-09-27T12:10:52;-10043.00;;;22.07;100.00
9460;BME280;4768;42.664;23.240;2022-09-27T12:13:32;-10047.72;;;22.24;100.00
9460;BME280;4768;42.664;23.240;2022-09-27T12:16:00;-10050.88;;;22.34;100.00
9460;BME280;4768;42.664;23.240;2022-09-27T12:18:29;-10063.16;;;22.77;100.00
9460;BME280;4768;42.664;23.240;2022-09-27T12:21:00;-10055.59;;;22.51;100.00
9460;BME280;4768;42.664;23.240;2022-09-27T12:23:35;-10045.00;;;22.14;100.00
9460;BME280;4768;42.664;23.240;2022-09-27T12:26:08;-10045.44;;;22.16;100.00
9460;BME280;4768;42.664;23.240;2022-09-27T12:28:42;-10051.03;;;22.35;100.00
9460;BME280;4768;42.664;23.240;2022-09-27T12:31:15;-10045.59;;;22.16;100.00
9460;BME280;4768;42.664;23.240;2022-09-27T12:33:48;-10049.00;;;22.28;100.00
9460;BME280;4768;42.664;23.240;2022-09-27T12:36:20;-10048.16;;;22.25;100.00
9460;BME280;4768;42.664;23.240;2022-09-27T12:38:55;-10051.03;;;22.35;100.00
9460;BME280;4768;42.664;23.240;2022-09-27T12:41:30;-10059.75;;;22.65;100.00
9460;BME280;4768;42.664;23.240;2022-09-27T12:44:00;-10064.03;;;22.80;100.00
9460;BME280;4768;42.664;23.240;2022-09-27T12:46:32;-10053.16;;;22.42;100.00
9460;BME280;4768;42.664;23.240;2022-09-27T12:49:04;-10056.59;;;22.54;100.00
9460;BME280;4768;42.664;23.240;2022-09-27T12:51:37;-10057.31;;;22.57;100.00
9460;BME280;4768;42.664;23.240;2022-09-27T12:54:32;-10056.31;;;22.53;100.00
9460;BME280;4768;42.664;23.240;2022-09-27T12:57:13;-10047.88;;;22.24;100.00
9460;BME280;4768;42.664;23.240;2022-09-27T12:59:55;-10047.59;;;22.23;100.00
9460;BME280;4768;42.664;23.240;2022-09-27T13:02:58;-10053.44;;;22.43;100.00
9460;BME280;4768;42.664;23.240;2022-09-27T13:05:42;-10055.75;;;22.51;100.00
9460;BME280;4768;42.664;23.240;2022-09-27T13:08:21;-10054.72;;;22.48;100.00
9460;BME280;4768;42.664;23.240;2022-09-27T13:11:03;-10054.03;;;22.45;100.00
9460;BME280;4768;42.664;23.240;2022-09-27T13:13:33;-10052.59;;;22.40;100.00
9460;BME280;4768;42.664;23.240;2022-09-27T13:16:03;-10046.44;;;22.19;100.00
9460;BME280;4768;42.664;23.240;2022-09-27T13:18:48;-10046.56;;;22.20;100.00
9460;BME280;4768;42.664;23.240;2022-09-27T13:24:42;-10051.72;;;22.37;100.00
9460;BME280;4768;42.664;23.240;2022-09-27T13:33:45;-10048.31;;;22.26;100.00
9460;BME280;4768;42.664;23.240;2022-09-27T13:36:29;-10049.16;;;22.29;100.00
9460;BME280;4768;42.664;23.240;2022-09-27T13:39:17;-10048.03;;;22.25;100.00
9460;BME280;4768;42.664;23.240;2022-09-27T13:42:03;-10046.16;;;22.18;100.00
9460;BME280;4768;42.664;23.240;2022-09-27T13:44:39;-10048.31;;;22.26;100.00
9460;BME280;4768;42.664;23.240;2022-09-27T13:47:17;-10045.28;;;22.15;100.00